createdAt,value
2023-02-11T00:00:22.868Z,58.13
2023-02-11T00:02:49.728Z,62.88
2023-02-11T00:05:16.702Z,61.85
2023-02-11T00:07:43.563Z,63.67
2023-02-11T00:10:10.468Z,63.67
2023-02-11T00:12:38.254Z,63.13
2023-02-11T00:15:07.671Z,64.28
2023-02-11T00:17:34.459Z,63.22
2023-02-11T00:20:01.365Z,62.92
2023-02-11T00:22:28.220Z,64.10
2023-02-11T00:24:57.151Z,64.47
2023-02-11T00:27:23.969Z,59.83
2023-02-11T00:29:50.850Z,62.97
2023-02-11T00:32:17.709Z,60.30
2023-02-11T00:34:44.607Z,61.47
2023-02-11T00:37:12.165Z,58.58
2023-02-11T00:39:39.151Z,57.70
2023-02-11T00:42:06.035Z,58.30
2023-02-11T00:44:32.860Z,59.95
2023-02-11T00:47:00.230Z,56.95
2023-02-11T00:49:27.085Z,56.75
2023-02-11T00:51:53.902Z,57.38
2023-02-11T00:54:20.768Z,54.70
2023-02-11T00:56:47.625Z,55.45
2023-02-11T00:59:14.444Z,52.30
2023-02-11T01:01:41.464Z,54.38
2023-02-11T01:04:08.423Z,56.55
2023-02-11T01:06:35.256Z,51.87
2023-02-11T01:09:02.040Z,55.90
2023-02-11T01:11:28.900Z,53.60
2023-02-11T01:13:55.681Z,54.30
2023-02-11T01:16:22.692Z,51.72
2023-02-11T01:18:49.681Z,51.92
2023-02-11T01:21:16.713Z,50.25
2023-02-11T01:23:43.624Z,47.00
2023-02-11T01:26:10.725Z,48.17
2023-02-11T01:28:37.737Z,46.80
2023-02-11T01:31:04.870Z,47.88
2023-02-11T01:33:31.762Z,48.83
2023-02-11T01:36:04.100Z,44.50
2023-02-11T01:38:31.800Z,44.42
2023-02-11T01:41:02.084Z,45.78
2023-02-11T01:43:33.355Z,46.93
2023-02-11T01:46:14.910Z,47.00
2023-02-11T01:48:45.580Z,47.25
2023-02-11T01:51:26.631Z,44.20
2023-02-11T01:54:14.038Z,43.42
2023-02-11T01:57:05.976Z,46.15
2023-02-11T01:59:40.914Z,42.13
2023-02-11T02:02:11.945Z,42.97
2023-02-11T02:04:50.793Z,44.50
2023-02-11T02:07:25.247Z,40.78
2023-02-11T02:10:00.156Z,40.80
2023-02-11T02:12:26.986Z,43.15
2023-02-11T02:17:42.945Z,42.45
2023-02-11T02:20:38.230Z,39.77
2023-02-11T02:23:11.142Z,40.00
2023-02-11T02:26:03.885Z,39.28
2023-02-11T02:28:50.963Z,39.05
2023-02-11T02:31:47.314Z,36.93
2023-02-11T02:34:29.332Z,37.38
2023-02-11T02:37:06.355Z,36.88
2023-02-11T02:39:36.362Z,36.97
2023-02-11T02:42:04.728Z,37.83
2023-02-11T02:44:32.169Z,39.13
2023-02-11T02:46:59.091Z,38.28
2023-02-11T02:49:25.982Z,35.25
2023-02-11T02:52:15.542Z,34.30
2023-02-11T02:55:03.301Z,33.88
2023-02-11T02:57:52.459Z,34.28
2023-02-11T03:00:48.275Z,33.92
2023-02-11T03:03:26.716Z,33.78
2023-02-11T03:06:08.907Z,33.65
2023-02-11T03:08:57.366Z,35.00
2023-02-11T03:11:25.330Z,32.03
2023-02-11T03:13:54.641Z,33.50
2023-02-11T03:16:26.305Z,30.80
2023-02-11T03:18:59.334Z,32.05
2023-02-11T03:21:27.890Z,34.72
2023-02-11T03:23:57.990Z,31.48
2023-02-11T03:26:46.926Z,31.58
2023-02-11T03:29:32.365Z,29.83
2023-02-11T03:32:01.967Z,30.73
2023-02-11T03:34:40.707Z,30.87
2023-02-11T03:37:23.718Z,27.33
2023-02-11T03:40:20.279Z,31.27
2023-02-11T03:43:17.327Z,30.57
2023-02-11T03:45:46.064Z,30.95
2023-02-11T03:48:15.903Z,30.75
2023-02-11T03:50:45.541Z,29.33
2023-02-11T03:53:14.194Z,32.08
2023-02-11T03:55:43.423Z,30.17
2023-02-11T03:58:10.528Z,28.35
2023-02-11T04:04:25.859Z,28.95
2023-02-11T04:06:53.320Z,28.90
2023-02-11T04:09:20.196Z,29.77
2023-02-11T04:11:47.036Z,32.17
2023-02-11T04:14:13.922Z,26.48
2023-02-11T04:16:40.762Z,27.23
2023-02-11T04:19:08.052Z,27.63
2023-02-11T04:21:34.902Z,29.60
2023-02-11T04:24:01.735Z,28.77
2023-02-11T04:26:28.551Z,31.23
2023-02-11T04:28:55.416Z,29.40
2023-02-11T04:31:22.374Z,28.63
2023-02-11T04:33:49.363Z,30.17
2023-02-11T04:36:16.179Z,31.05
2023-02-11T04:38:43.021Z,29.10
2023-02-11T04:41:09.927Z,32.67
2023-02-11T04:43:36.819Z,29.80
2023-02-11T04:46:03.798Z,30.38
2023-02-11T04:48:30.676Z,29.02
2023-02-11T04:50:57.507Z,29.13
2023-02-11T04:53:24.330Z,27.45
2023-02-11T04:55:51.594Z,28.85
2023-02-11T04:58:19.703Z,31.60
2023-02-11T05:00:46.977Z,31.00
2023-02-11T05:03:14.407Z,33.17
2023-02-11T05:05:42.735Z,30.67
2023-02-11T05:08:12.819Z,30.33
2023-02-11T05:10:39.693Z,31.95
2023-02-11T05:13:06.562Z,31.40
2023-02-11T05:15:33.559Z,33.20
2023-02-11T05:18:00.419Z,32.47
2023-02-11T05:20:27.272Z,33.17
2023-02-11T05:22:54.146Z,29.23
2023-02-11T05:25:21.181Z,29.98
2023-02-11T05:27:48.140Z,29.67
2023-02-11T05:30:15.257Z,32.17
2023-02-11T05:32:42.371Z,30.42
2023-02-11T05:35:09.685Z,33.65
2023-02-11T05:37:36.750Z,35.40
2023-02-11T05:40:04.598Z,31.55
2023-02-11T05:42:31.475Z,31.73
2023-02-11T05:44:58.451Z,31.77
2023-02-11T05:47:25.338Z,34.58
2023-02-11T05:49:53.639Z,31.98
2023-02-11T05:52:22.077Z,30.92
2023-02-11T05:54:49.038Z,33.73
2023-02-11T05:57:16.738Z,31.60
2023-02-11T05:59:43.952Z,34.13
2023-02-11T06:02:11.265Z,34.15
2023-02-11T06:04:38.420Z,35.13
2023-02-11T06:07:05.545Z,33.45
2023-02-11T06:09:32.435Z,37.72
2023-02-11T06:11:59.259Z,36.17
2023-02-11T06:14:26.116Z,31.87
2023-02-11T06:16:52.994Z,33.58
2023-02-11T06:19:19.858Z,34.00
2023-02-11T06:21:46.673Z,35.03
2023-02-11T06:24:13.642Z,36.20
2023-02-11T06:26:40.594Z,36.60
2023-02-11T06:29:07.760Z,38.45
2023-02-11T06:31:34.734Z,35.03
2023-02-11T06:34:01.608Z,36.28
2023-02-11T06:36:28.466Z,36.38
2023-02-11T06:38:55.655Z,35.58
2023-02-11T06:41:23.071Z,37.45
2023-02-11T06:43:50.169Z,37.67
2023-02-11T06:46:17.138Z,40.67
2023-02-11T06:48:45.060Z,33.88
2023-02-11T06:51:13.442Z,39.17
2023-02-11T06:53:43.493Z,38.92
2023-02-11T06:56:13.698Z,39.30
2023-02-11T06:58:40.574Z,37.53
2023-02-11T07:01:09.690Z,40.63
2023-02-11T07:03:39.515Z,39.90
2023-02-11T07:06:08.232Z,41.90
2023-02-11T07:08:36.905Z,39.88
2023-02-11T07:11:14.905Z,41.30
2023-02-11T07:13:42.050Z,41.65
2023-02-11T07:16:13.157Z,39.53
2023-02-11T07:18:40.397Z,39.43
2023-02-11T07:21:09.750Z,38.92
2023-02-11T07:23:37.822Z,46.03
2023-02-11T07:26:06.669Z,46.28
2023-02-11T07:28:35.508Z,46.38
2023-02-11T07:31:10.923Z,46.80
2023-02-11T07:33:38.181Z,44.28
2023-02-11T07:36:07.335Z,43.65
2023-02-11T07:38:35.640Z,44.73
2023-02-11T07:41:04.828Z,49.83
2023-02-11T07:43:32.714Z,41.50
2023-02-11T07:45:59.653Z,43.67
2023-02-11T07:48:26.465Z,45.20
2023-02-11T07:50:53.256Z,49.43
2023-02-11T07:53:20.230Z,46.50
2023-02-11T07:55:47.100Z,49.20
2023-02-11T07:58:13.907Z,50.87
2023-02-11T08:00:40.940Z,50.47
2023-02-11T08:03:08.415Z,53.33
2023-02-11T08:05:38.371Z,54.47
2023-02-11T08:08:05.255Z,58.08
2023-02-11T08:10:32.084Z,58.67
2023-02-11T08:12:58.868Z,53.00
2023-02-11T08:15:25.693Z,51.67
2023-02-11T08:17:52.629Z,48.77
2023-02-11T08:20:19.813Z,55.57
2023-02-11T08:22:46.832Z,52.80
2023-02-11T08:25:13.771Z,54.63
2023-02-11T08:27:40.610Z,56.40
2023-02-11T08:30:07.917Z,60.22
2023-02-11T08:32:35.354Z,54.35
2023-02-11T08:35:02.159Z,58.92
2023-02-11T08:37:31.388Z,57.75
2023-02-11T08:39:59.548Z,60.28
2023-02-11T08:42:26.436Z,53.33
2023-02-11T08:44:53.240Z,55.55
2023-02-11T08:47:20.077Z,55.47
2023-02-11T08:49:47.065Z,56.08
2023-02-11T08:52:13.961Z,56.13
2023-02-11T08:54:40.910Z,59.63
2023-02-11T08:57:07.730Z,55.38
2023-02-11T08:59:34.860Z,56.28
2023-02-11T09:02:01.737Z,60.03
2023-02-11T09:04:28.688Z,56.38
2023-02-11T09:06:55.567Z,57.97
2023-02-11T09:09:22.462Z,57.28
2023-02-11T09:11:49.318Z,55.97
2023-02-11T09:14:22.101Z,53.13
2023-02-11T09:16:50.056Z,53.60
2023-02-11T09:19:17.876Z,55.75
2023-02-11T09:21:44.879Z,52.95
2023-02-11T09:24:12.223Z,52.73
2023-02-11T09:26:41.297Z,52.83
2023-02-11T09:29:08.228Z,57.65
2023-02-11T09:31:35.570Z,53.85
2023-02-11T09:34:06.079Z,56.40
2023-02-11T09:36:37.507Z,54.38
2023-02-11T09:39:07.447Z,52.45
2023-02-11T09:41:43.278Z,58.47
2023-02-11T09:44:25.105Z,56.67
2023-02-11T09:47:04.493Z,59.75
2023-02-11T09:49:45.425Z,53.17
2023-02-11T09:52:30.378Z,56.67
2023-02-11T09:55:00.517Z,56.78
2023-02-11T09:57:34.137Z,53.33
2023-02-11T10:00:02.029Z,59.00
2023-02-11T10:02:50.498Z,52.35
2023-02-11T10:05:29.624Z,57.43
2023-02-11T10:08:10.140Z,55.92
2023-02-11T10:11:09.025Z,55.00
2023-02-11T10:13:42.675Z,52.38
2023-02-11T10:16:21.763Z,51.58
2023-02-11T10:18:57.166Z,53.85
2023-02-11T10:21:24.349Z,60.72
2023-02-11T10:23:56.760Z,56.78
2023-02-11T10:26:26.702Z,52.22
2023-02-11T10:28:56.057Z,55.58
2023-02-11T10:31:40.131Z,58.05
2023-02-11T10:34:12.473Z,59.13
2023-02-11T10:36:42.812Z,57.83
2023-02-11T10:39:21.133Z,49.97
2023-02-11T10:41:54.594Z,53.40
2023-02-11T10:44:33.396Z,52.88
2023-02-11T10:47:05.412Z,50.95
2023-02-11T10:49:42.701Z,54.13
2023-02-11T10:52:27.933Z,56.00
2023-02-11T10:55:23.029Z,58.42
2023-02-11T10:57:57.974Z,58.35
2023-02-11T11:00:37.045Z,53.77
2023-02-11T11:03:07.929Z,54.97
2023-02-11T11:05:37.867Z,56.10
2023-02-11T11:08:09.810Z,60.50
2023-02-11T11:10:43.754Z,54.80
2023-02-11T11:13:32.464Z,49.50
2023-02-11T11:16:14.533Z,50.00
2023-02-11T11:18:43.887Z,56.03
2023-02-11T11:21:49.713Z,52.28
2023-02-11T11:24:27.640Z,50.58
2023-02-11T11:26:58.322Z,52.47
2023-02-11T11:29:30.624Z,52.45
2023-02-11T11:32:01.455Z,51.83
2023-02-11T11:34:38.697Z,56.20
2023-02-11T11:37:26.465Z,49.88
2023-02-11T11:40:24.304Z,54.70
2023-02-11T11:43:06.806Z,52.72
2023-02-11T11:45:33.762Z,53.45
2023-02-11T11:48:09.585Z,50.53
2023-02-11T11:50:52.812Z,48.67
2023-02-11T11:53:19.962Z,48.33
2023-02-11T11:56:07.698Z,50.17
2023-02-11T11:58:35.281Z,49.17
2023-02-11T12:01:30.228Z,47.08
2023-02-11T12:04:03.408Z,48.47
2023-02-11T12:07:07.700Z,51.75
2023-02-11T12:09:43.844Z,50.30
2023-02-11T12:12:32.195Z,52.58
2023-02-11T12:15:23.940Z,47.78
2023-02-11T12:18:38.048Z,51.30
2023-02-11T12:21:22.858Z,45.08
2023-02-11T12:24:16.280Z,47.83
2023-02-11T12:26:50.104Z,41.87
2023-02-11T12:29:39.741Z,41.47
2023-02-11T12:32:28.491Z,42.65
2023-02-11T12:34:58.210Z,42.15
2023-02-11T12:38:09.883Z,40.95
2023-02-11T12:40:53.666Z,46.10
2023-02-11T12:43:24.396Z,41.92
2023-02-11T12:46:08.302Z,41.15
2023-02-11T12:48:41.089Z,38.60
2023-02-11T12:51:16.705Z,39.00
2023-02-11T12:53:46.626Z,42.53
2023-02-11T12:56:29.193Z,42.03
2023-02-11T12:58:59.007Z,40.28
2023-02-11T13:01:39.727Z,38.13
2023-02-11T13:04:15.744Z,41.03
2023-02-11T13:06:48.598Z,39.22
2023-02-11T13:09:22.645Z,43.92
2023-02-11T13:11:57.888Z,39.60
2023-02-11T13:14:29.986Z,36.30
2023-02-11T13:16:58.714Z,37.50
2023-02-11T13:19:31.799Z,39.85
2023-02-11T13:22:17.630Z,38.03
2023-02-11T13:24:50.941Z,41.55
2023-02-11T13:27:36.841Z,40.38
2023-02-11T13:30:19.344Z,38.33
2023-02-11T13:32:57.958Z,38.88
2023-02-11T13:35:57.029Z,38.95
2023-02-11T13:38:29.412Z,39.95
2023-02-11T13:41:27.623Z,36.78
2023-02-11T13:44:02.585Z,35.65
2023-02-11T13:46:53.918Z,37.63
2023-02-11T13:49:33.948Z,39.25
2023-02-11T13:52:03.974Z,38.78
2023-02-11T13:54:39.781Z,37.65
2023-02-11T13:57:37.311Z,36.47
2023-02-11T14:00:39.434Z,36.92
2023-02-11T14:03:30.912Z,37.10
2023-02-11T14:06:28.456Z,34.10
2023-02-11T14:09:10.401Z,37.35
2023-02-11T14:12:30.337Z,37.03
2023-02-11T14:15:07.898Z,33.25
2023-02-11T14:17:35.642Z,32.20
2023-02-11T14:22:50.368Z,31.70
2023-02-11T14:25:27.069Z,32.28
2023-02-11T14:28:23.604Z,33.17
2023-02-11T14:31:13.297Z,33.08
2023-02-11T14:33:40.657Z,33.50
2023-02-11T14:36:59.709Z,33.38
2023-02-11T14:39:41.199Z,32.55
2023-02-11T14:42:20.894Z,35.60
2023-02-11T14:44:50.782Z,32.40
2023-02-11T14:47:23.393Z,32.83
2023-02-11T14:49:51.796Z,31.17
2023-02-11T14:52:25.193Z,32.72
2023-02-11T14:54:57.194Z,32.42
2023-02-11T14:57:24.402Z,31.75
2023-02-11T15:00:06.132Z,30.77
2023-02-11T15:02:36.737Z,31.02
2023-02-11T15:05:32.867Z,31.35
2023-02-11T15:08:02.963Z,34.25
2023-02-11T15:10:41.103Z,31.92
2023-02-11T15:13:09.043Z,30.30
2023-02-11T15:15:40.619Z,29.98
2023-02-11T15:18:10.145Z,29.88
2023-02-11T15:20:37.214Z,30.63
2023-02-11T15:23:08.056Z,29.67
2023-02-11T15:25:42.373Z,28.10
2023-02-11T15:28:21.439Z,27.80
2023-02-11T15:31:01.241Z,29.33
2023-02-11T15:33:30.690Z,27.80
2023-02-11T15:35:58.957Z,30.75
2023-02-11T15:38:26.165Z,28.92
2023-02-11T15:41:00.521Z,28.33
2023-02-11T15:43:47.883Z,28.65
2023-02-11T15:46:20.752Z,27.77
2023-02-11T15:48:50.481Z,28.48
2023-02-11T15:51:29.740Z,30.02
2023-02-11T15:53:59.709Z,28.90
2023-02-11T15:56:30.565Z,28.42
2023-02-11T15:59:02.446Z,32.70
2023-02-11T16:01:38.291Z,30.20
2023-02-11T16:04:05.853Z,29.75
2023-02-11T16:06:41.130Z,31.90
2023-02-11T16:09:13.618Z,30.80
2023-02-11T16:11:46.779Z,31.67
2023-02-11T16:14:23.431Z,30.63
2023-02-11T16:16:58.257Z,32.25
2023-02-11T16:19:27.256Z,30.52
2023-02-11T16:21:56.535Z,29.83
2023-02-11T16:24:33.535Z,31.17
2023-02-11T16:27:02.708Z,29.38
2023-02-11T16:29:35.701Z,30.50
2023-02-11T16:32:27.523Z,30.70
2023-02-11T16:35:00.832Z,29.42
2023-02-11T16:37:28.281Z,29.40
2023-02-11T16:40:00.971Z,28.45
2023-02-11T16:42:27.859Z,28.08
2023-02-11T16:44:54.754Z,29.65
2023-02-11T16:47:27.020Z,29.58
2023-02-11T16:49:55.588Z,29.23
2023-02-11T16:52:23.106Z,30.80
2023-02-11T16:54:50.285Z,29.98
2023-02-11T16:57:19.961Z,28.23
2023-02-11T16:59:48.471Z,29.05
2023-02-11T17:02:25.266Z,29.17
2023-02-11T17:04:56.264Z,29.00
2023-02-11T17:07:23.308Z,29.48
2023-02-11T17:09:51.711Z,29.75
2023-02-11T17:12:19.289Z,28.83
2023-02-11T17:14:46.169Z,31.33
2023-02-11T17:17:13.681Z,28.53
2023-02-11T17:19:40.781Z,28.67
2023-02-11T17:22:07.930Z,29.50
2023-02-11T17:24:34.830Z,28.42
2023-02-11T17:27:01.672Z,28.27
2023-02-11T17:29:28.572Z,28.20
2023-02-11T17:31:56.064Z,27.35
2023-02-11T17:34:23.870Z,29.55
2023-02-11T17:36:50.834Z,57.37
2023-02-11T17:39:19.242Z,44.53
2023-02-11T17:41:46.738Z,46.28
2023-02-11T17:44:15.680Z,38.65
2023-02-11T17:46:42.980Z,35.72
2023-02-11T17:49:11.805Z,34.67
2023-02-11T17:51:40.241Z,43.72
2023-02-11T17:54:20.180Z,38.38
2023-02-11T17:56:50.715Z,31.42
2023-02-11T17:59:17.858Z,31.70
2023-02-11T18:01:44.699Z,26.45
2023-02-11T18:04:16.571Z,27.50
2023-02-11T18:06:43.757Z,20.60
2023-02-11T18:09:11.196Z,21.30
2023-02-11T18:11:39.570Z,18.70
2023-02-11T18:14:07.962Z,16.73
2023-02-11T18:16:36.693Z,18.95
2023-02-11T18:19:04.471Z,21.27
2023-02-11T18:21:31.411Z,22.20
2023-02-11T18:24:01.140Z,22.88
2023-02-11T18:26:31.301Z,18.87
2023-02-11T18:29:00.137Z,16.53
2023-02-11T18:31:28.036Z,24.63
2023-02-11T18:33:55.244Z,23.40
2023-02-11T18:36:23.021Z,13.10
2023-02-11T18:38:50.081Z,12.35
2023-02-11T18:41:16.990Z,10.55
2023-02-11T18:43:44.057Z,10.10
2023-02-11T18:46:13.819Z,12.27
2023-02-11T18:48:41.215Z,11.33
2023-02-11T18:51:18.390Z,12.32
2023-02-11T18:53:45.430Z,11.35
2023-02-11T18:56:15.315Z,11.82
2023-02-11T18:58:42.266Z,11.80
2023-02-11T19:01:15.320Z,13.20
2023-02-11T19:03:43.046Z,12.73
2023-02-11T19:06:15.892Z,11.93
2023-02-11T19:08:42.997Z,12.05
2023-02-11T19:11:10.164Z,10.30
2023-02-11T19:13:38.115Z,13.07
2023-02-11T19:16:11.319Z,11.38
2023-02-11T19:18:38.864Z,10.20
2023-02-11T19:21:10.441Z,12.27
2023-02-11T19:23:38.159Z,10.85
2023-02-11T19:26:06.549Z,12.27
2023-02-11T19:28:37.164Z,10.23
2023-02-11T19:31:09.087Z,16.33
2023-02-11T19:33:36.376Z,25.60
2023-02-11T19:36:07.642Z,13.80
2023-02-11T19:38:35.501Z,12.00
2023-02-11T19:41:05.080Z,11.70
2023-02-11T19:43:31.979Z,11.80
2023-02-11T19:46:01.025Z,12.65
2023-02-11T19:48:28.078Z,13.05
2023-02-11T19:50:55.126Z,12.90
2023-02-11T19:53:22.477Z,12.00
2023-02-11T19:55:50.150Z,16.95
2023-02-11T19:58:17.553Z,13.15
2023-02-11T20:00:44.589Z,16.33
2023-02-11T20:03:11.478Z,12.15
2023-02-11T20:05:42.380Z,14.07
2023-02-11T20:08:09.567Z,15.35
2023-02-11T20:10:36.529Z,20.15
2023-02-11T20:13:04.013Z,15.65
2023-02-11T20:15:31.125Z,12.93
2023-02-11T20:17:57.937Z,13.10
2023-02-11T20:20:25.070Z,13.35
2023-02-11T20:22:54.671Z,12.13
2023-02-11T20:25:21.712Z,11.52
2023-02-11T20:27:49.200Z,10.63
2023-02-11T20:30:16.803Z,12.30
2023-02-11T20:32:46.648Z,13.20
2023-02-11T20:35:13.797Z,12.65
2023-02-11T20:37:43.782Z,11.30
2023-02-11T20:40:11.482Z,12.20
2023-02-11T20:42:38.494Z,13.73
2023-02-11T20:45:05.572Z,13.07
2023-02-11T20:47:32.580Z,17.35
2023-02-11T20:50:02.465Z,14.00
2023-02-11T20:52:29.384Z,11.32
2023-02-11T20:54:56.271Z,10.93
2023-02-11T20:57:27.938Z,12.32
2023-02-11T20:59:55.194Z,13.40
2023-02-11T21:02:24.658Z,11.55
2023-02-11T21:04:51.747Z,14.37
2023-02-11T21:07:18.860Z,13.17
2023-02-11T21:09:45.658Z,11.18
2023-02-11T21:12:13.175Z,10.48
2023-02-11T21:14:40.015Z,11.02
2023-02-11T21:17:07.581Z,12.20
2023-02-11T21:19:34.390Z,13.50
2023-02-11T21:22:01.806Z,13.32
2023-02-11T21:24:28.891Z,13.88
2023-02-11T21:26:55.905Z,13.32
2023-02-11T21:29:22.881Z,13.90
2023-02-11T21:31:51.333Z,17.15
2023-02-11T21:34:18.491Z,14.88
2023-02-11T21:36:45.487Z,13.93
2023-02-11T21:39:13.676Z,14.65
2023-02-11T21:41:40.529Z,12.48
2023-02-11T21:44:07.401Z,12.82
2023-02-11T21:46:34.412Z,15.38
2023-02-11T21:49:01.337Z,16.00
2023-02-11T21:51:28.377Z,16.08
2023-02-11T21:53:58.674Z,13.57
2023-02-11T21:56:28.147Z,16.02
2023-02-11T21:58:56.815Z,12.90
2023-02-11T22:01:29.060Z,15.27
2023-02-11T22:03:56.224Z,11.50
2023-02-11T22:06:31.092Z,15.13
2023-02-11T22:08:58.529Z,15.55
2023-02-11T22:11:25.468Z,13.80
2023-02-11T22:13:56.453Z,12.90
2023-02-11T22:16:24.097Z,11.90
2023-02-11T22:18:51.571Z,15.95
2023-02-11T22:21:22.256Z,12.75
2023-02-11T22:23:50.513Z,11.82
2023-02-11T22:26:23.288Z,12.95
2023-02-11T22:28:51.508Z,13.13
2023-02-11T22:31:30.465Z,14.05
2023-02-11T22:33:58.347Z,13.32
2023-02-11T22:36:28.247Z,14.27
2023-02-11T22:38:55.594Z,17.80
2023-02-11T22:41:23.624Z,17.98
2023-02-11T22:43:50.762Z,19.35
2023-02-11T22:46:19.144Z,20.73
2023-02-11T22:48:46.915Z,19.05
2023-02-11T22:51:20.577Z,20.80
2023-02-11T22:54:01.769Z,22.35
2023-02-11T22:56:30.272Z,22.75
2023-02-11T22:59:08.390Z,24.67
2023-02-11T23:01:35.854Z,23.92
2023-02-11T23:04:05.813Z,23.77
2023-02-11T23:06:33.096Z,23.92
2023-02-11T23:09:00.138Z,24.00
2023-02-11T23:11:30.375Z,23.55
2023-02-11T23:13:57.314Z,24.10
2023-02-11T23:16:27.042Z,25.02
2023-02-11T23:18:54.646Z,24.95
2023-02-11T23:21:24.784Z,23.77
2023-02-11T23:23:57.878Z,25.17
2023-02-11T23:26:25.684Z,24.63
2023-02-11T23:28:52.715Z,25.37
2023-02-11T23:31:22.819Z,25.05
2023-02-11T23:33:50.902Z,25.20
2023-02-11T23:36:19.359Z,25.08
2023-02-11T23:38:46.855Z,24.65
2023-02-11T23:41:14.723Z,26.13
2023-02-11T23:43:41.568Z,24.60
2023-02-11T23:46:09.133Z,24.65
2023-02-11T23:48:38.016Z,25.42
2023-02-11T23:51:05.071Z,25.48
2023-02-11T23:53:32.052Z,24.88
2023-02-11T23:55:58.920Z,24.48
2023-02-11T23:58:25.748Z,25.77
